sensor_id;sensor_type;location;lat;lon;timestamp;pressure;altitude;pressure_sealevel;temperature;humidity
41898;BME280;27576;53.366;-1.498;2023-07-08T00:00:21;100003.44;;;20.69;63.16
41898;BME280;27576;53.366;-1.498;2023-07-08T00:02:47;100017.28;;;20.74;62.82
41898;BME280;27576;53.366;-1.498;2023-07-08T00:05:13;100007.19;;;20.62;63.03
41898;BME280;27576;53.366;-1.498;2023-07-08T00:07:40;100027.72;;;20.77;62.21
41898;BME280;27576;53.366;-1.498;2023-07-08T00:10:24;100032.13;;;20.76;63.35
41898;BME280;27576;53.366;-1.498;2023-07-08T00:12:51;100017.38;;;20.71;62.75
41898;BME280;27576;53.366;-1.498;2023-07-08T00:15:18;100013.88;;;20.72;63.29
41898;BME280;27576;53.366;-1.498;2023-07-08T00:17:45;100017.63;;;20.65;64.90
41898;BME280;27576;53.366;-1.498;2023-07-08T00:20:13;100002.03;;;20.58;63.25
41898;BME280;27576;53.366;-1.498;2023-07-08T00:22:40;100006.44;;;20.58;62.49
41898;BME280;27576;53.366;-1.498;2023-07-08T00:25:06;100012.69;;;20.55;63.06
41898;BME280;27576;53.366;-1.498;2023-07-08T00:27:32;100006.59;;;20.53;63.07
41898;BME280;27576;53.366;-1.498;2023-07-08T00:29:58;99983.41;;;20.38;62.47
41898;BME280;27576;53.366;-1.498;2023-07-08T00:32:25;100009.41;;;20.49;62.48
41898;BME280;27576;53.366;-1.498;2023-07-08T00:34:51;99981.88;;;20.31;62.49
41898;BME280;27576;53.366;-1.498;2023-07-08T00:37:16;100012.19;;;20.43;63.81
41898;BME280;27576;53.366;-1.498;2023-07-08T00:39:41;100005.38;;;20.37;65.54
41898;BME280;27576;53.366;-1.498;2023-07-08T00:42:25;99995.38;;;20.22;66.53
41898;BME280;27576;53.366;-1.498;2023-07-08T00:44:51;100000.47;;;20.26;67.11
41898;BME280;27576;53.366;-1.498;2023-07-08T00:47:17;99997.34;;;20.15;67.64
41898;BME280;27576;53.366;-1.498;2023-07-08T00:49:50;99996.63;;;20.10;67.22
41898;BME280;27576;53.366;-1.498;2023-07-08T00:54:54;99991.63;;;20.02;67.07
41898;BME280;27576;53.366;-1.498;2023-07-08T00:57:23;99996.09;;;20.00;68.60
41898;BME280;27576;53.366;-1.498;2023-07-08T01:00:36;99998.81;;;19.97;67.40
41898;BME280;27576;53.366;-1.498;2023-07-08T01:02:52;99986.75;;;19.90;68.81
41898;BME280;27576;53.366;-1.498;2023-07-08T01:05:22;99993.81;;;19.88;69.38
41898;BME280;27576;53.366;-1.498;2023-07-08T01:07:56;99993.06;;;19.84;69.95
41898;BME280;27576;53.366;-1.498;2023-07-08T01:10:27;99993.22;;;19.80;70.38
41898;BME280;27576;53.366;-1.498;2023-07-08T01:12:58;99989.06;;;19.73;70.29
41898;BME280;27576;53.366;-1.498;2023-07-08T01:15:29;99984.16;;;19.60;71.11
41898;BME280;27576;53.366;-1.498;2023-07-08T01:17:56;99974.75;;;19.53;70.64
41898;BME280;27576;53.366;-1.498;2023-07-08T01:20:22;99989.59;;;19.54;70.95
41898;BME280;27576;53.366;-1.498;2023-07-08T01:22:47;99993.25;;;19.50;71.68
41898;BME280;27576;53.366;-1.498;2023-07-08T01:25:13;99985.50;;;19.46;71.25
41898;BME280;27576;53.366;-1.498;2023-07-08T01:27:46;99988.94;;;19.48;72.17
41898;BME280;27576;53.366;-1.498;2023-07-08T01:30:13;99989.97;;;19.42;72.74
41898;BME280;27576;53.366;-1.498;2023-07-08T01:32:44;99992.00;;;19.32;73.33
41898;BME280;27576;53.366;-1.498;2023-07-08T01:35:11;99967.94;;;19.18;73.22
41898;BME280;27576;53.366;-1.498;2023-07-08T01:37:41;100002.66;;;19.28;73.49
41898;BME280;27576;53.366;-1.498;2023-07-08T01:42:45;99983.81;;;19.13;73.13
41898;BME280;27576;53.366;-1.498;2023-07-08T01:45:16;99987.31;;;19.14;73.99
41898;BME280;27576;53.366;-1.498;2023-07-08T01:47:45;99997.84;;;19.12;73.92
41898;BME280;27576;53.366;-1.498;2023-07-08T01:50:13;99997.06;;;19.09;74.33
41898;BME280;27576;53.366;-1.498;2023-07-08T01:52:39;99991.81;;;19.09;72.93
41898;BME280;27576;53.366;-1.498;2023-07-08T01:55:05;99985.97;;;18.99;73.75
41898;BME280;27576;53.366;-1.498;2023-07-08T01:57:31;99988.59;;;18.99;74.12
41898;BME280;27576;53.366;-1.498;2023-07-08T01:59:56;99994.66;;;19.01;74.35
41898;BME280;27576;53.366;-1.498;2023-07-08T02:02:21;99995.63;;;18.99;75.10
41898;BME280;27576;53.366;-1.498;2023-07-08T02:04:49;99992.19;;;18.97;73.86
41898;BME280;27576;53.366;-1.498;2023-07-08T02:07:15;99986.34;;;18.87;75.33
41898;BME280;27576;53.366;-1.498;2023-07-08T02:09:40;99963.06;;;18.73;74.93
41898;BME280;27576;53.366;-1.498;2023-07-08T02:12:06;99965.56;;;18.78;75.49
41898;BME280;27576;53.366;-1.498;2023-07-08T02:14:31;99953.53;;;18.69;75.85
41898;BME280;27576;53.366;-1.498;2023-07-08T02:16:56;99977.03;;;18.75;76.93
41898;BME280;27576;53.366;-1.498;2023-07-08T02:19:22;99976.28;;;18.70;77.10
41898;BME280;27576;53.366;-1.498;2023-07-08T02:21:47;99943.50;;;18.52;77.34
41898;BME280;27576;53.366;-1.498;2023-07-08T02:24:13;99979.06;;;18.64;77.58
41898;BME280;27576;53.366;-1.498;2023-07-08T02:26:42;99972.13;;;18.61;77.23
41898;BME280;27576;53.366;-1.498;2023-07-08T02:29:07;99960.81;;;18.59;78.08
41898;BME280;27576;53.366;-1.498;2023-07-08T02:31:32;99952.31;;;18.50;78.24
41898;BME280;27576;53.366;-1.498;2023-07-08T02:33:58;99931.72;;;18.34;77.39
41898;BME280;27576;53.366;-1.498;2023-07-08T02:36:23;99944.72;;;18.39;78.50
41898;BME280;27576;53.366;-1.498;2023-07-08T02:38:48;99946.50;;;18.38;78.85
41898;BME280;27576;53.366;-1.498;2023-07-08T02:41:14;99946.53;;;18.37;78.80
41898;BME280;27576;53.366;-1.498;2023-07-08T02:43:40;99956.00;;;18.43;79.60
41898;BME280;27576;53.366;-1.498;2023-07-08T02:46:05;99960.44;;;18.40;79.13
41898;BME280;27576;53.366;-1.498;2023-07-08T02:48:30;99962.22;;;18.38;79.91
41898;BME280;27576;53.366;-1.498;2023-07-08T02:51:00;99955.31;;;18.36;79.26
41898;BME280;27576;53.366;-1.498;2023-07-08T02:53:26;99951.06;;;18.30;79.11
41898;BME280;27576;53.366;-1.498;2023-07-08T02:55:51;99954.66;;;18.28;79.39
41898;BME280;27576;53.366;-1.498;2023-07-08T02:58:16;99952.84;;;18.30;79.01
41898;BME280;27576;53.366;-1.498;2023-07-08T03:00:41;99947.78;;;18.24;79.94
41898;BME280;27576;53.366;-1.498;2023-07-08T03:03:07;99948.72;;;18.21;79.74
41898;BME280;27576;53.366;-1.498;2023-07-08T03:05:32;99950.53;;;18.18;79.83
41898;BME280;27576;53.366;-1.498;2023-07-08T03:07:58;99942.63;;;18.19;80.02
41898;BME280;27576;53.366;-1.498;2023-07-08T03:10:24;99939.16;;;18.19;79.91
41898;BME280;27576;53.366;-1.498;2023-07-08T03:12:49;99950.63;;;18.14;80.74
41898;BME280;27576;53.366;-1.498;2023-07-08T03:15:14;99943.78;;;18.09;80.30
41898;BME280;27576;53.366;-1.498;2023-07-08T03:17:43;99941.28;;;18.04;81.20
41898;BME280;27576;53.366;-1.498;2023-07-08T03:20:09;99944.75;;;18.05;81.22
41898;BME280;27576;53.366;-1.498;2023-07-08T03:22:35;99912.09;;;17.82;81.22
41898;BME280;27576;53.366;-1.498;2023-07-08T03:25:01;99922.53;;;17.84;81.27
41898;BME280;27576;53.366;-1.498;2023-07-08T03:27:26;99939.84;;;17.91;81.36
41898;BME280;27576;53.366;-1.498;2023-07-08T03:29:52;99931.47;;;17.77;81.12
41898;BME280;27576;53.366;-1.498;2023-07-08T03:32:17;99939.03;;;17.89;80.47
41898;BME280;27576;53.366;-1.498;2023-07-08T03:34:42;99946.06;;;17.87;80.55
41898;BME280;27576;53.366;-1.498;2023-07-08T03:37:08;99917.69;;;17.67;80.68
41898;BME280;27576;53.366;-1.498;2023-07-08T03:39:34;99941.78;;;17.83;81.16
41898;BME280;27576;53.366;-1.498;2023-07-08T03:41:59;99895.19;;;17.58;81.77
41898;BME280;27576;53.366;-1.498;2023-07-08T03:44:25;99926.13;;;17.80;81.33
41898;BME280;27576;53.366;-1.498;2023-07-08T03:46:50;99928.81;;;17.78;81.79
41898;BME280;27576;53.366;-1.498;2023-07-08T03:49:17;99916.16;;;17.58;81.51
41898;BME280;27576;53.366;-1.498;2023-07-08T03:51:48;99938.53;;;17.72;82.15
41898;BME280;27576;53.366;-1.498;2023-07-08T03:54:15;99943.88;;;17.69;82.35
41898;BME280;27576;53.366;-1.498;2023-07-08T03:56:40;99943.13;;;17.62;83.25
41898;BME280;27576;53.366;-1.498;2023-07-08T03:59:07;99948.31;;;17.65;82.77
41898;BME280;27576;53.366;-1.498;2023-07-08T04:01:32;99943.22;;;17.59;83.43
41898;BME280;27576;53.366;-1.498;2023-07-08T04:03:58;99950.22;;;17.58;82.98
41898;BME280;27576;53.366;-1.498;2023-07-08T04:06:24;99947.72;;;17.52;84.38
41898;BME280;27576;53.366;-1.498;2023-07-08T04:08:51;99950.34;;;17.52;84.34
41898;BME280;27576;53.366;-1.498;2023-07-08T04:11:19;99949.47;;;17.52;85.03
41898;BME280;27576;53.366;-1.498;2023-07-08T04:13:46;99952.16;;;17.50;84.68
41898;BME280;27576;53.366;-1.498;2023-07-08T04:18:41;99948.00;;;17.40;85.30
41898;BME280;27576;53.366;-1.498;2023-07-08T04:21:07;99945.44;;;17.37;84.01
41898;BME280;27576;53.366;-1.498;2023-07-08T04:23:32;99964.41;;;17.48;84.82
41898;BME280;27576;53.366;-1.498;2023-07-08T04:25:58;99958.31;;;17.48;85.03
41898;BME280;27576;53.366;-1.498;2023-07-08T04:28:24;99960.06;;;17.47;85.09
41898;BME280;27576;53.366;-1.498;2023-07-08T04:30:49;99954.81;;;17.47;85.60
41898;BME280;27576;53.366;-1.498;2023-07-08T04:33:15;99950.50;;;17.45;85.43
41898;BME280;27576;53.366;-1.498;2023-07-08T04:35:42;99943.59;;;17.42;85.44
41898;BME280;27576;53.366;-1.498;2023-07-08T04:38:20;99918.56;;;17.29;85.93
41898;BME280;27576;53.366;-1.498;2023-07-08T04:40:47;99942.56;;;17.49;85.40
41898;BME280;27576;53.366;-1.498;2023-07-08T04:43:14;99924.53;;;17.35;86.05
41898;BME280;27576;53.366;-1.498;2023-07-08T04:45:40;99951.41;;;17.45;86.40
41898;BME280;27576;53.366;-1.498;2023-07-08T04:48:11;99932.28;;;17.40;86.94
41898;BME280;27576;53.366;-1.498;2023-07-08T04:50:50;99946.13;;;17.47;87.19
41898;BME280;27576;53.366;-1.498;2023-07-08T04:53:16;99906.25;;;17.34;87.00
41898;BME280;27576;53.366;-1.498;2023-07-08T04:55:47;99925.16;;;17.47;87.22
41898;BME280;27576;53.366;-1.498;2023-07-08T04:58:13;99928.59;;;17.49;86.84
41898;BME280;27576;53.366;-1.498;2023-07-08T05:00:39;99908.81;;;17.35;86.99
41898;BME280;27576;53.366;-1.498;2023-07-08T05:03:04;99931.94;;;17.55;86.46
41898;BME280;27576;53.366;-1.498;2023-07-08T05:05:29;99931.91;;;17.57;86.47
41898;BME280;27576;53.366;-1.498;2023-07-08T05:07:55;99935.41;;;17.57;86.96
41898;BME280;27576;53.366;-1.498;2023-07-08T05:10:20;99937.84;;;17.63;87.11
41898;BME280;27576;53.366;-1.498;2023-07-08T05:12:46;99927.50;;;17.59;86.27
41898;BME280;27576;53.366;-1.498;2023-07-08T05:15:13;99941.25;;;17.69;86.65
41898;BME280;27576;53.366;-1.498;2023-07-08T05:17:39;99930.84;;;17.64;87.14
41898;BME280;27576;53.366;-1.498;2023-07-08T05:20:07;99936.72;;;17.75;85.70
41898;BME280;27576;53.366;-1.498;2023-07-08T05:22:34;99924.56;;;17.73;86.50
41898;BME280;27576;53.366;-1.498;2023-07-08T05:24:59;99926.81;;;17.88;85.36
41898;BME280;27576;53.366;-1.498;2023-07-08T05:27:25;99905.03;;;17.86;87.52
41898;BME280;27576;53.366;-1.498;2023-07-08T05:29:50;99916.84;;;18.02;87.53
41898;BME280;27576;53.366;-1.498;2023-07-08T05:32:16;99920.06;;;18.13;86.75
41898;BME280;27576;53.366;-1.498;2023-07-08T05:34:42;99922.44;;;18.23;85.03
41898;BME280;27576;53.366;-1.498;2023-07-08T05:37:07;99910.16;;;18.25;85.01
41898;BME280;27576;53.366;-1.498;2023-07-08T05:39:33;99890.16;;;18.21;85.82
41898;BME280;27576;53.366;-1.498;2023-07-08T05:41:58;99917.56;;;18.42;85.47
41898;BME280;27576;53.366;-1.498;2023-07-08T05:44:24;99919.16;;;18.47;85.85
41898;BME280;27576;53.366;-1.498;2023-07-08T05:46:50;99918.97;;;18.53;84.68
41898;BME280;27576;53.366;-1.498;2023-07-08T05:49:16;99924.03;;;18.61;83.26
41898;BME280;27576;53.366;-1.498;2023-07-08T05:51:43;99919.44;;;18.71;83.50
41898;BME280;27576;53.366;-1.498;2023-07-08T05:54:09;99903.72;;;18.68;85.05
41898;BME280;27576;53.366;-1.498;2023-07-08T05:56:35;99900.16;;;18.70;83.03
41898;BME280;27576;53.366;-1.498;2023-07-08T05:59:00;99916.34;;;18.86;83.36
41898;BME280;27576;53.366;-1.498;2023-07-08T06:01:25;99922.34;;;18.91;82.48
41898;BME280;27576;53.366;-1.498;2023-07-08T06:03:51;99928.13;;;19.02;81.34
41898;BME280;27576;53.366;-1.498;2023-07-08T06:06:17;99929.66;;;19.09;81.06
41898;BME280;27576;53.366;-1.498;2023-07-08T06:08:43;99918.16;;;19.13;81.21
41898;BME280;27576;53.366;-1.498;2023-07-08T06:11:08;99903.91;;;19.21;80.69
41898;BME280;27576;53.366;-1.498;2023-07-08T06:13:34;99927.69;;;19.46;81.41
41898;BME280;27576;53.366;-1.498;2023-07-08T06:15:59;99931.78;;;19.54;80.03
41898;BME280;27576;53.366;-1.498;2023-07-08T06:18:24;99915.09;;;19.55;80.22
41898;BME280;27576;53.366;-1.498;2023-07-08T06:20:54;99907.44;;;19.49;80.04
41898;BME280;27576;53.366;-1.498;2023-07-08T06:23:20;99905.69;;;19.48;80.40
41898;BME280;27576;53.366;-1.498;2023-07-08T06:25:45;99911.00;;;19.47;79.38
41898;BME280;27576;53.366;-1.498;2023-07-08T06:28:10;99925.69;;;19.54;79.36
41898;BME280;27576;53.366;-1.498;2023-07-08T06:30:36;99923.19;;;19.49;78.96
41898;BME280;27576;53.366;-1.498;2023-07-08T06:33:04;99938.25;;;19.72;78.99
41898;BME280;27576;53.366;-1.498;2023-07-08T06:35:30;99951.13;;;19.81;79.90
41898;BME280;27576;53.366;-1.498;2023-07-08T06:37:56;99950.13;;;19.84;78.47
41898;BME280;27576;53.366;-1.498;2023-07-08T06:40:21;99950.13;;;19.84;78.69
41898;BME280;27576;53.366;-1.498;2023-07-08T06:42:46;99953.78;;;19.80;78.71
41898;BME280;27576;53.366;-1.498;2023-07-08T06:45:12;99953.06;;;19.75;78.76
41898;BME280;27576;53.366;-1.498;2023-07-08T06:47:37;99964.66;;;19.69;78.51
41898;BME280;27576;53.366;-1.498;2023-07-08T06:50:03;99941.63;;;19.48;78.35
41898;BME280;27576;53.366;-1.498;2023-07-08T06:52:28;99963.25;;;19.57;79.16
41898;BME280;27576;53.366;-1.498;2023-07-08T06:55:00;99952.81;;;19.54;81.98
41898;BME280;27576;53.366;-1.498;2023-07-08T06:57:26;99950.13;;;19.56;82.82
41898;BME280;27576;53.366;-1.498;2023-07-08T06:59:51;99947.25;;;19.65;82.78
41898;BME280;27576;53.366;-1.498;2023-07-08T07:02:16;99922.72;;;19.65;80.98
41898;BME280;27576;53.366;-1.498;2023-07-08T07:04:43;99944.28;;;20.02;80.31
41898;BME280;27576;53.366;-1.498;2023-07-08T07:07:09;99943.34;;;20.30;79.81
41898;BME280;27576;53.366;-1.498;2023-07-08T07:09:34;99944.44;;;20.49;79.29
41898;BME280;27576;53.366;-1.498;2023-07-08T07:11:59;99940.34;;;20.66;76.97
41898;BME280;27576;53.366;-1.498;2023-07-08T07:14:24;99941.69;;;20.77;76.66
41898;BME280;27576;53.366;-1.498;2023-07-08T07:16:50;99941.41;;;20.85;76.74
41898;BME280;27576;53.366;-1.498;2023-07-08T07:19:15;99916.78;;;20.86;76.36
41898;BME280;27576;53.366;-1.498;2023-07-08T07:21:41;99936.06;;;21.10;75.46
41898;BME280;27576;53.366;-1.498;2023-07-08T07:24:06;99932.09;;;21.22;73.95
41898;BME280;27576;53.366;-1.498;2023-07-08T07:26:32;99902.75;;;21.09;73.53
41898;BME280;27576;53.366;-1.498;2023-07-08T07:28:57;99938.72;;;21.33;74.39
41898;BME280;27576;53.366;-1.498;2023-07-08T07:31:23;99930.50;;;21.41;74.14
41898;BME280;27576;53.366;-1.498;2023-07-08T07:33:48;99911.28;;;21.39;73.89
41898;BME280;27576;53.366;-1.498;2023-07-08T07:36:13;99940.09;;;21.66;73.77
41898;BME280;27576;53.366;-1.498;2023-07-08T07:38:39;99940.38;;;21.80;74.89
41898;BME280;27576;53.366;-1.498;2023-07-08T07:41:04;99938.97;;;21.93;74.50
41898;BME280;27576;53.366;-1.498;2023-07-08T07:43:33;99935.75;;;22.07;72.80
41898;BME280;27576;53.366;-1.498;2023-07-08T07:45:58;99933.47;;;22.20;71.70
41898;BME280;27576;53.366;-1.498;2023-07-08T07:48:24;99927.00;;;22.27;71.09
41898;BME280;27576;53.366;-1.498;2023-07-08T07:50:50;99922.25;;;22.35;71.47
41898;BME280;27576;53.366;-1.498;2023-07-08T07:53:17;99948.72;;;22.54;70.63
41898;BME280;27576;53.366;-1.498;2023-07-08T07:55:42;99949.56;;;22.54;70.23
41898;BME280;27576;53.366;-1.498;2023-07-08T07:58:07;99950.75;;;22.47;69.44
41898;BME280;27576;53.366;-1.498;2023-07-08T08:00:33;99969.38;;;22.44;69.87
41898;BME280;27576;53.366;-1.498;2023-07-08T08:02:59;99959.59;;;22.26;69.86
41898;BME280;27576;53.366;-1.498;2023-07-08T08:05:24;99971.84;;;22.28;70.55
41898;BME280;27576;53.366;-1.498;2023-07-08T08:07:49;99958.38;;;22.13;71.78
41898;BME280;27576;53.366;-1.498;2023-07-08T08:10:15;99956.00;;;22.06;72.52
41898;BME280;27576;53.366;-1.498;2023-07-08T08:12:41;99976.88;;;22.13;72.34
41898;BME280;27576;53.366;-1.498;2023-07-08T08:15:07;99974.91;;;22.18;72.69
41898;BME280;27576;53.366;-1.498;2023-07-08T08:17:32;99967.41;;;22.29;74.15
41898;BME280;27576;53.366;-1.498;2023-07-08T08:19:58;99943.03;;;22.43;74.02
41898;BME280;27576;53.366;-1.498;2023-07-08T08:22:23;99947.09;;;22.70;72.43
41898;BME280;27576;53.366;-1.498;2023-07-08T08:24:49;99953.91;;;22.76;71.71
41898;BME280;27576;53.366;-1.498;2023-07-08T08:27:15;99949.53;;;22.75;71.49
41898;BME280;27576;53.366;-1.498;2023-07-08T08:29:40;99950.59;;;22.71;70.88
41898;BME280;27576;53.366;-1.498;2023-07-08T08:32:06;99945.66;;;22.63;71.48
41898;BME280;27576;53.366;-1.498;2023-07-08T08:34:31;99928.44;;;22.54;71.61
41898;BME280;27576;53.366;-1.498;2023-07-08T08:36:57;99947.31;;;22.66;72.54
41898;BME280;27576;53.366;-1.498;2023-07-08T08:39:22;99949.09;;;22.65;72.58
41898;BME280;27576;53.366;-1.498;2023-07-08T08:41:50;99920.97;;;22.64;71.96
41898;BME280;27576;53.366;-1.498;2023-07-08T08:44:31;99925.13;;;22.70;70.76
41898;BME280;27576;53.366;-1.498;2023-07-08T08:47:11;99917.28;;;22.68;71.57
41898;BME280;27576;53.366;-1.498;2023-07-08T08:49:44;99934.41;;;22.78;72.03
41898;BME280;27576;53.366;-1.498;2023-07-08T08:52:13;99909.41;;;22.67;71.91
41898;BME280;27576;53.366;-1.498;2023-07-08T08:54:39;99923.41;;;22.69;71.76
41898;BME280;27576;53.366;-1.498;2023-07-08T08:59:44;99942.13;;;22.83;72.83
41898;BME280;27576;53.366;-1.498;2023-07-08T09:02:38;99938.63;;;22.83;73.31
41898;BME280;27576;53.366;-1.498;2023-07-08T09:05:08;99945.78;;;22.81;73.65
41898;BME280;27576;53.366;-1.498;2023-07-08T09:08:12;99962.34;;;22.84;74.39
41898;BME280;27576;53.366;-1.498;2023-07-08T09:13:06;99970.09;;;22.68;74.80
41898;BME280;27576;53.366;-1.498;2023-07-08T09:15:32;99995.97;;;22.81;74.65
41898;BME280;27576;53.366;-1.498;2023-07-08T09:18:10;99986.81;;;22.69;75.21
41898;BME280;27576;53.366;-1.498;2023-07-08T09:20:38;99990.22;;;22.71;75.59
41898;BME280;27576;53.366;-1.498;2023-07-08T09:23:23;99994.66;;;22.70;75.90
41898;BME280;27576;53.366;-1.498;2023-07-08T09:25:59;100004.50;;;22.67;76.53
41898;BME280;27576;53.366;-1.498;2023-07-08T09:28:41;100021.88;;;22.72;76.49
41898;BME280;27576;53.366;-1.498;2023-07-08T09:31:09;100008.19;;;22.63;76.78
41898;BME280;27576;53.366;-1.498;2023-07-08T09:33:38;100022.19;;;22.65;76.20
41898;BME280;27576;53.366;-1.498;2023-07-08T09:36:16;99993.94;;;22.46;77.61
41898;BME280;27576;53.366;-1.498;2023-07-08T09:38:41;100014.31;;;22.63;76.58
41898;BME280;27576;53.366;-1.498;2023-07-08T09:41:07;100006.41;;;22.63;77.11
41898;BME280;27576;53.366;-1.498;2023-07-08T09:43:38;100016.50;;;22.74;76.06
41898;BME280;27576;53.366;-1.498;2023-07-08T09:46:04;100010.13;;;22.79;75.93
41898;BME280;27576;53.366;-1.498;2023-07-08T09:48:34;99991.81;;;22.75;76.31
41898;BME280;27576;53.366;-1.498;2023-07-08T09:51:00;100013.53;;;23.02;76.29
41898;BME280;27576;53.366;-1.498;2023-07-08T09:53:26;100017.50;;;23.31;74.75
41898;BME280;27576;53.366;-1.498;2023-07-08T09:55:52;99997.50;;;23.44;73.77
41898;BME280;27576;53.366;-1.498;2023-07-08T09:58:31;100029.84;;;23.70;73.34
41898;BME280;27576;53.366;-1.498;2023-07-08T10:01:00;100024.88;;;23.81;73.48
41898;BME280;27576;53.366;-1.498;2023-07-08T10:03:29;100042.06;;;24.09;71.99
41898;BME280;27576;53.366;-1.498;2023-07-08T10:05:57;100034.44;;;24.39;71.90
41898;BME280;27576;53.366;-1.498;2023-07-08T10:08:31;100033.53;;;24.57;69.82
41898;BME280;27576;53.366;-1.498;2023-07-08T10:13:49;100006.94;;;24.41;69.41
41898;BME280;27576;53.366;-1.498;2023-07-08T10:16:29;100048.22;;;24.63;68.99
41898;BME280;27576;53.366;-1.498;2023-07-08T10:18:56;100048.06;;;24.66;68.38
41898;BME280;27576;53.366;-1.498;2023-07-08T10:26:38;100056.31;;;24.60;68.49
41898;BME280;27576;53.366;-1.498;2023-07-08T10:34:29;100070.44;;;24.24;71.83
41898;BME280;27576;53.366;-1.498;2023-07-08T11:01:01;100149.25;;;23.81;76.11
41898;BME280;27576;53.366;-1.498;2023-07-08T11:06:18;100153.63;;;23.62;77.85
41898;BME280;27576;53.366;-1.498;2023-07-08T11:08:51;100175.72;;;23.61;78.96
41898;BME280;27576;53.366;-1.498;2023-07-08T11:13:56;100185.78;;;23.52;81.04
41898;BME280;27576;53.366;-1.498;2023-07-08T11:16:34;100177.94;;;23.51;81.79
41898;BME280;27576;53.366;-1.498;2023-07-08T11:19:06;100177.84;;;23.52;81.92
41898;BME280;27576;53.366;-1.498;2023-07-08T11:22:00;100174.44;;;23.50;82.42
41898;BME280;27576;53.366;-1.498;2023-07-08T11:24:34;100172.13;;;23.43;82.35
41898;BME280;27576;53.366;-1.498;2023-07-08T11:27:36;100184.81;;;23.35;83.70
41898;BME280;27576;53.366;-1.498;2023-07-08T11:30:14;100193.97;;;23.26;83.62
41898;BME280;27576;53.366;-1.498;2023-07-08T11:32:42;100194.50;;;23.14;84.03
41898;BME280;27576;53.366;-1.498;2023-07-08T11:35:42;100202.75;;;23.06;85.45
41898;BME280;27576;53.366;-1.498;2023-07-08T11:38:14;100197.13;;;22.93;85.40
41898;BME280;27576;53.366;-1.498;2023-07-08T11:41:02;100194.78;;;22.86;86.62
41898;BME280;27576;53.366;-1.498;2023-07-08T11:43:39;100190.72;;;22.77;86.33
41898;BME280;27576;53.366;-1.498;2023-07-08T11:46:06;100201.69;;;22.68;89.69
41898;BME280;27576;53.366;-1.498;2023-07-08T11:48:41;100197.75;;;22.56;93.38
41898;BME280;27576;53.366;-1.498;2023-07-08T11:51:08;100167.53;;;22.41;96.34
41898;BME280;27576;53.366;-1.498;2023-07-08T11:53:47;100113.75;;;22.22;100.00
41898;BME280;27576;53.366;-1.498;2023-07-08T12:03:40;100162.28;;;22.18;100.00
41898;BME280;27576;53.366;-1.498;2023-07-08T12:09:14;100152.66;;;22.17;100.00
41898;BME280;27576;53.366;-1.498;2023-07-08T12:11:44;100158.53;;;22.23;100.00
41898;BME280;27576;53.366;-1.498;2023-07-08T12:14:10;100162.97;;;22.23;100.00
41898;BME280;27576;53.366;-1.498;2023-07-08T12:16:36;100162.03;;;22.24;100.00
41898;BME280;27576;53.366;-1.498;2023-07-08T12:19:04;100150.75;;;22.20;100.00
41898;BME280;27576;53.366;-1.498;2023-07-08T12:21:34;100167.31;;;22.24;100.00
41898;BME280;27576;53.366;-1.498;2023-07-08T12:24:05;100151.78;;;22.16;100.00
41898;BME280;27576;53.366;-1.498;2023-07-08T12:26:32;100168.63;;;22.14;100.00
41898;BME280;27576;53.366;-1.498;2023-07-08T12:28:57;100167.09;;;22.06;100.00
41898;BME280;27576;53.366;-1.498;2023-07-08T12:31:23;100175.50;;;22.18;100.00
41898;BME280;27576;53.366;-1.498;2023-07-08T12:33:49;100192.28;;;22.15;100.00
41898;BME280;27576;53.366;-1.498;2023-07-08T12:36:21;100176.03;;;22.02;100.00
41898;BME280;27576;53.366;-1.498;2023-07-08T12:38:48;100194.44;;;22.04;100.00
41898;BME280;27576;53.366;-1.498;2023-07-08T12:41:24;100191.88;;;22.02;100.00
41898;BME280;27576;53.366;-1.498;2023-07-08T12:43:50;100190.38;;;21.95;100.00
41898;BME280;27576;53.366;-1.498;2023-07-08T12:46:18;100196.34;;;22.00;100.00
41898;BME280;27576;53.366;-1.498;2023-07-08T12:48:44;100193.69;;;22.00;100.00
41898;BME280;27576;53.366;-1.498;2023-07-08T12:51:15;100197.25;;;21.99;100.00
41898;BME280;27576;53.366;-1.498;2023-07-08T12:53:44;100181.41;;;22.01;100.00
41898;BME280;27576;53.366;-1.498;2023-07-08T12:56:10;100184.88;;;22.01;100.00
41898;BME280;27576;53.366;-1.498;2023-07-08T12:58:40;100178.75;;;22.01;100.00
41898;BME280;27576;53.366;-1.498;2023-07-08T13:01:07;100199.44;;;22.12;100.00
41898;BME280;27576;53.366;-1.498;2023-07-08T13:03:37;100220.28;;;22.19;100.00
41898;BME280;27576;53.366;-1.498;2023-07-08T13:06:06;100212.44;;;22.18;100.00
41898;BME280;27576;53.366;-1.498;2023-07-08T13:08:35;100206.59;;;22.08;100.00
41898;BME280;27576;53.366;-1.498;2023-07-08T13:11:02;100214.81;;;22.00;100.00
41898;BME280;27576;53.366;-1.498;2023-07-08T13:13:31;100221.13;;;21.96;100.00
41898;BME280;27576;53.366;-1.498;2023-07-08T13:15:59;100223.94;;;21.92;100.00
41898;BME280;27576;53.366;-1.498;2023-07-08T13:18:32;100234.56;;;21.90;100.00
41898;BME280;27576;53.366;-1.498;2023-07-08T13:20:59;100228.41;;;21.90;100.00
41898;BME280;27576;53.366;-1.498;2023-07-08T13:23:26;100237.13;;;21.92;100.00
41898;BME280;27576;53.366;-1.498;2023-07-08T13:25:53;100233.63;;;21.91;100.00
41898;BME280;27576;53.366;-1.498;2023-07-08T13:28:30;100234.66;;;21.87;100.00
41898;BME280;27576;53.366;-1.498;2023-07-08T13:31:20;100250.09;;;21.73;100.00
41898;BME280;27576;53.366;-1.498;2023-07-08T13:33:51;100244.38;;;21.62;100.00
41898;BME280;27576;53.366;-1.498;2023-07-08T13:36:19;100228.88;;;21.52;100.00
41898;BME280;27576;53.366;-1.498;2023-07-08T13:38:45;100212.84;;;21.32;100.00
41898;BME280;27576;53.366;-1.498;2023-07-08T13:41:20;100225.03;;;21.36;100.00
41898;BME280;27576;53.366;-1.498;2023-07-08T13:43:47;100206.69;;;21.33;100.00
41898;BME280;27576;53.366;-1.498;2023-07-08T13:46:40;100177.19;;;21.22;100.00
41898;BME280;27576;53.366;-1.498;2023-07-08T13:49:39;100201.88;;;21.46;100.00
41898;BME280;27576;53.366;-1.498;2023-07-08T13:52:23;100204.00;;;21.60;100.00
41898;BME280;27576;53.366;-1.498;2023-07-08T13:54:54;100186.22;;;21.65;100.00
41898;BME280;27576;53.366;-1.498;2023-07-08T13:57:32;100190.91;;;22.05;100.00